sensor_id;sensor_type;location;lat;lon;timestamp;temperature;humidity
37408;DHT22;24866;50.248;8.252;2023-07-13T00:02:21;17.70;99.90
37408;DHT22;24866;50.248;8.252;2023-07-13T00:04:51;17.50;99.90
37408;DHT22;24866;50.248;8.252;2023-07-13T00:07:22;17.30;1.00
37408;DHT22;24866;50.248;8.252;2023-07-13T00:09:52;17.40;1.00
37408;DHT22;24866;50.248;8.252;2023-07-13T00:12:25;17.10;99.90
37408;DHT22;24866;50.248;8.252;2023-07-13T00:14:56;17.20;1.00
37408;DHT22;24866;50.248;8.252;2023-07-13T00:17:27;16.80;1.00
37408;DHT22;24866;50.248;8.252;2023-07-13T00:19:58;17.20;1.00
37408;DHT22;24866;50.248;8.252;2023-07-13T00:22:29;17.20;99.90
37408;DHT22;24866;50.248;8.252;2023-07-13T00:24:59;17.40;1.00
37408;DHT22;24866;50.248;8.252;2023-07-13T00:27:29;17.30;1.00
37408;DHT22;24866;50.248;8.252;2023-07-13T00:30:00;17.20;57.10
37408;DHT22;24866;50.248;8.252;2023-07-13T00:32:31;17.30;35.80
37408;DHT22;24866;50.248;8.252;2023-07-13T00:35:01;17.10;99.90
37408;DHT22;24866;50.248;8.252;2023-07-13T00:37:34;17.40;91.80
37408;DHT22;24866;50.248;8.252;2023-07-13T00:40:07;17.50;1.00
37408;DHT22;24866;50.248;8.252;2023-07-13T00:42:37;17.50;1.00
37408;DHT22;24866;50.248;8.252;2023-07-13T00:48:19;17.40;10.60
37408;DHT22;24866;50.248;8.252;2023-07-13T00:50:51;17.30;99.90
37408;DHT22;24866;50.248;8.252;2023-07-13T00:53:24;16.90;1.00
37408;DHT22;24866;50.248;8.252;2023-07-13T00:55:55;16.80;99.90
37408;DHT22;24866;50.248;8.252;2023-07-13T00:58:26;16.80;1.00
37408;DHT22;24866;50.248;8.252;2023-07-13T01:00:57;16.90;1.00
37408;DHT22;24866;50.248;8.252;2023-07-13T01:03:27;17.00;1.00
37408;DHT22;24866;50.248;8.252;2023-07-13T01:05:57;17.20;99.90
37408;DHT22;24866;50.248;8.252;2023-07-13T01:08:28;17.10;1.00
37408;DHT22;24866;50.248;8.252;2023-07-13T01:10:58;17.10;99.90
37408;DHT22;24866;50.248;8.252;2023-07-13T01:13:28;16.90;1.00
37408;DHT22;24866;50.248;8.252;2023-07-13T01:16:03;16.70;41.40
37408;DHT22;24866;50.248;8.252;2023-07-13T01:18:33;16.90;1.00
37408;DHT22;24866;50.248;8.252;2023-07-13T01:21:04;16.80;1.00
37408;DHT22;24866;50.248;8.252;2023-07-13T01:23:34;15.70;1.00
37408;DHT22;24866;50.248;8.252;2023-07-13T01:26:04;15.50;99.90
37408;DHT22;24866;50.248;8.252;2023-07-13T01:28:34;15.60;99.90
37408;DHT22;24866;50.248;8.252;2023-07-13T01:31:06;15.80;99.90
37408;DHT22;24866;50.248;8.252;2023-07-13T01:33:37;16.20;97.40
37408;DHT22;24866;50.248;8.252;2023-07-13T01:36:10;16.20;1.00
37408;DHT22;24866;50.248;8.252;2023-07-13T01:38:40;16.10;1.00
37408;DHT22;24866;50.248;8.252;2023-07-13T01:41:10;16.10;1.00
37408;DHT22;24866;50.248;8.252;2023-07-13T01:43:40;16.00;1.00
37408;DHT22;24866;50.248;8.252;2023-07-13T01:46:10;16.00;1.00
37408;DHT22;24866;50.248;8.252;2023-07-13T01:48:40;16.00;1.00
37408;DHT22;24866;50.248;8.252;2023-07-13T01:51:11;15.80;10.00
37408;DHT22;24866;50.248;8.252;2023-07-13T01:53:42;15.80;29.30
37408;DHT22;24866;50.248;8.252;2023-07-13T01:56:12;15.80;1.00
37408;DHT22;24866;50.248;8.252;2023-07-13T01:58:41;15.80;42.10
37408;DHT22;24866;50.248;8.252;2023-07-13T02:01:11;15.80;22.60
37408;DHT22;24866;50.248;8.252;2023-07-13T02:03:41;15.80;1.00
37408;DHT22;24866;50.248;8.252;2023-07-13T02:06:12;15.60;21.90
37408;DHT22;24866;50.248;8.252;2023-07-13T02:08:42;15.70;61.10
37408;DHT22;24866;50.248;8.252;2023-07-13T02:11:12;15.80;1.00
37408;DHT22;24866;50.248;8.252;2023-07-13T02:13:42;15.80;1.00
37408;DHT22;24866;50.248;8.252;2023-07-13T02:16:12;15.80;1.00
37408;DHT22;24866;50.248;8.252;2023-07-13T02:18:41;15.50;1.00
37408;DHT22;24866;50.248;8.252;2023-07-13T02:21:13;15.40;90.30
37408;DHT22;24866;50.248;8.252;2023-07-13T02:23:42;15.60;99.90
37408;DHT22;24866;50.248;8.252;2023-07-13T02:26:12;15.30;81.40
37408;DHT22;24866;50.248;8.252;2023-07-13T02:28:42;15.20;99.90
37408;DHT22;24866;50.248;8.252;2023-07-13T02:31:14;15.10;99.90
37408;DHT22;24866;50.248;8.252;2023-07-13T02:33:44;15.20;99.90
37408;DHT22;24866;50.248;8.252;2023-07-13T02:36:15;15.10;99.90
37408;DHT22;24866;50.248;8.252;2023-07-13T02:38:49;15.10;99.90
37408;DHT22;24866;50.248;8.252;2023-07-13T02:41:19;15.00;99.90
37408;DHT22;24866;50.248;8.252;2023-07-13T02:43:49;15.00;99.90
37408;DHT22;24866;50.248;8.252;2023-07-13T02:46:19;14.80;99.90
37408;DHT22;24866;50.248;8.252;2023-07-13T02:48:49;14.80;99.90
37408;DHT22;24866;50.248;8.252;2023-07-13T02:51:20;15.00;99.90
37408;DHT22;24866;50.248;8.252;2023-07-13T02:53:50;15.10;99.90
37408;DHT22;24866;50.248;8.252;2023-07-13T02:56:23;14.80;99.90
37408;DHT22;24866;50.248;8.252;2023-07-13T02:58:53;14.80;99.90
37408;DHT22;24866;50.248;8.252;2023-07-13T03:01:24;14.90;99.90
37408;DHT22;24866;50.248;8.252;2023-07-13T03:03:54;14.80;99.90
37408;DHT22;24866;50.248;8.252;2023-07-13T03:06:25;14.70;99.90
37408;DHT22;24866;50.248;8.252;2023-07-13T03:08:58;14.70;99.90
37408;DHT22;24866;50.248;8.252;2023-07-13T03:11:29;14.60;99.90
37408;DHT22;24866;50.248;8.252;2023-07-13T03:13:59;14.60;99.90
37408;DHT22;24866;50.248;8.252;2023-07-13T03:16:29;14.70;99.90
37408;DHT22;24866;50.248;8.252;2023-07-13T03:18:59;14.70;99.90
37408;DHT22;24866;50.248;8.252;2023-07-13T03:21:30;14.70;99.90
37408;DHT22;24866;50.248;8.252;2023-07-13T03:24:00;14.70;99.90
37408;DHT22;24866;50.248;8.252;2023-07-13T03:26:29;14.70;99.90
37408;DHT22;24866;50.248;8.252;2023-07-13T03:29:00;14.70;99.90
37408;DHT22;24866;50.248;8.252;2023-07-13T03:31:36;14.70;99.90
37408;DHT22;24866;50.248;8.252;2023-07-13T03:34:05;14.70;99.90
37408;DHT22;24866;50.248;8.252;2023-07-13T03:36:37;14.70;99.90
37408;DHT22;24866;50.248;8.252;2023-07-13T03:39:08;14.60;99.90
37408;DHT22;24866;50.248;8.252;2023-07-13T03:41:38;14.30;99.90
37408;DHT22;24866;50.248;8.252;2023-07-13T03:44:08;14.20;99.90
37408;DHT22;24866;50.248;8.252;2023-07-13T03:46:38;14.20;99.90
37408;DHT22;24866;50.248;8.252;2023-07-13T03:49:08;14.20;99.90
37408;DHT22;24866;50.248;8.252;2023-07-13T03:51:39;13.90;99.90
37408;DHT22;24866;50.248;8.252;2023-07-13T03:54:09;13.70;99.90
37408;DHT22;24866;50.248;8.252;2023-07-13T03:56:39;13.70;99.90
37408;DHT22;24866;50.248;8.252;2023-07-13T03:59:08;13.70;99.90
37408;DHT22;24866;50.248;8.252;2023-07-13T04:01:38;13.70;99.90
37408;DHT22;24866;50.248;8.252;2023-07-13T04:04:08;13.70;99.90
37408;DHT22;24866;50.248;8.252;2023-07-13T04:06:39;13.70;99.90
37408;DHT22;24866;50.248;8.252;2023-07-13T04:09:09;13.80;99.90
37408;DHT22;24866;50.248;8.252;2023-07-13T04:11:39;14.00;99.90
37408;DHT22;24866;50.248;8.252;2023-07-13T04:14:09;14.30;99.90
37408;DHT22;24866;50.248;8.252;2023-07-13T04:16:39;14.40;99.90
37408;DHT22;24866;50.248;8.252;2023-07-13T04:19:09;14.40;99.90
37408;DHT22;24866;50.248;8.252;2023-07-13T04:21:40;14.00;99.90
37408;DHT22;24866;50.248;8.252;2023-07-13T04:24:10;14.00;99.90
37408;DHT22;24866;50.248;8.252;2023-07-13T04:26:40;13.90;99.90
37408;DHT22;24866;50.248;8.252;2023-07-13T04:29:10;13.90;99.90
37408;DHT22;24866;50.248;8.252;2023-07-13T04:31:40;14.00;99.90
37408;DHT22;24866;50.248;8.252;2023-07-13T04:34:09;14.30;99.90
37408;DHT22;24866;50.248;8.252;2023-07-13T04:36:41;14.40;99.90
37408;DHT22;24866;50.248;8.252;2023-07-13T04:39:10;14.40;99.90
37408;DHT22;24866;50.248;8.252;2023-07-13T04:41:40;14.30;99.90
37408;DHT22;24866;50.248;8.252;2023-07-13T04:44:10;14.30;99.90
37408;DHT22;24866;50.248;8.252;2023-07-13T04:46:40;14.40;99.90
37408;DHT22;24866;50.248;8.252;2023-07-13T04:49:09;14.30;99.90
37408;DHT22;24866;50.248;8.252;2023-07-13T04:51:41;14.20;99.90
37408;DHT22;24866;50.248;8.252;2023-07-13T04:54:10;14.30;99.90
37408;DHT22;24866;50.248;8.252;2023-07-13T04:56:40;14.50;99.90
37408;DHT22;24866;50.248;8.252;2023-07-13T04:59:10;14.10;99.90
37408;DHT22;24866;50.248;8.252;2023-07-13T05:01:40;14.10;99.90
37408;DHT22;24866;50.248;8.252;2023-07-13T05:04:10;14.30;99.90
37408;DHT22;24866;50.248;8.252;2023-07-13T05:06:41;14.50;99.90
37408;DHT22;24866;50.248;8.252;2023-07-13T05:09:11;14.50;99.90
37408;DHT22;24866;50.248;8.252;2023-07-13T05:11:42;14.70;99.90
37408;DHT22;24866;50.248;8.252;2023-07-13T05:14:13;14.90;99.90
37408;DHT22;24866;50.248;8.252;2023-07-13T05:16:45;15.00;99.90
37408;DHT22;24866;50.248;8.252;2023-07-13T05:19:15;15.20;99.90
37408;DHT22;24866;50.248;8.252;2023-07-13T05:21:46;15.40;99.90
37408;DHT22;24866;50.248;8.252;2023-07-13T05:24:16;15.40;99.90
37408;DHT22;24866;50.248;8.252;2023-07-13T05:26:47;15.40;99.90
37408;DHT22;24866;50.248;8.252;2023-07-13T05:29:17;15.50;99.90
37408;DHT22;24866;50.248;8.252;2023-07-13T05:31:47;15.60;99.90
37408;DHT22;24866;50.248;8.252;2023-07-13T05:34:17;15.80;99.90
37408;DHT22;24866;50.248;8.252;2023-07-13T05:36:48;16.10;99.90
37408;DHT22;24866;50.248;8.252;2023-07-13T05:39:18;16.40;99.90
37408;DHT22;24866;50.248;8.252;2023-07-13T05:41:48;16.50;99.90
37408;DHT22;24866;50.248;8.252;2023-07-13T05:44:18;16.60;99.90
37408;DHT22;24866;50.248;8.252;2023-07-13T05:46:48;16.70;29.30
37408;DHT22;24866;50.248;8.252;2023-07-13T05:49:18;16.80;1.00
37408;DHT22;24866;50.248;8.252;2023-07-13T05:51:49;16.90;1.00
37408;DHT22;24866;50.248;8.252;2023-07-13T05:54:19;17.00;1.00
37408;DHT22;24866;50.248;8.252;2023-07-13T05:56:49;17.00;99.90
37408;DHT22;24866;50.248;8.252;2023-07-13T05:59:19;17.10;99.90
37408;DHT22;24866;50.248;8.252;2023-07-13T06:01:49;17.20;99.90
37408;DHT22;24866;50.248;8.252;2023-07-13T06:04:20;17.30;1.00
37408;DHT22;24866;50.248;8.252;2023-07-13T06:06:51;17.40;1.00
37408;DHT22;24866;50.248;8.252;2023-07-13T06:09:22;17.40;99.90
37408;DHT22;24866;50.248;8.252;2023-07-13T06:11:52;17.50;99.90
37408;DHT22;24866;50.248;8.252;2023-07-13T06:14:22;17.50;99.90
37408;DHT22;24866;50.248;8.252;2023-07-13T06:16:52;17.60;1.00
37408;DHT22;24866;50.248;8.252;2023-07-13T06:19:22;17.70;99.90
37408;DHT22;24866;50.248;8.252;2023-07-13T06:21:53;17.70;1.00
37408;DHT22;24866;50.248;8.252;2023-07-13T06:24:23;17.70;99.90
37408;DHT22;24866;50.248;8.252;2023-07-13T06:26:53;17.80;99.90
37408;DHT22;24866;50.248;8.252;2023-07-13T06:29:23;17.90;66.70
37408;DHT22;24866;50.248;8.252;2023-07-13T06:31:53;18.10;99.90
37408;DHT22;24866;50.248;8.252;2023-07-13T06:34:22;18.10;1.00
37408;DHT22;24866;50.248;8.252;2023-07-13T06:36:54;18.20;1.00
37408;DHT22;24866;50.248;8.252;2023-07-13T06:39:23;18.30;1.00
37408;DHT22;24866;50.248;8.252;2023-07-13T06:41:53;18.40;1.00
37408;DHT22;24866;50.248;8.252;2023-07-13T06:44:23;18.20;99.90
37408;DHT22;24866;50.248;8.252;2023-07-13T06:46:53;18.40;99.90
37408;DHT22;24866;50.248;8.252;2023-07-13T06:49:23;18.50;99.90
37408;DHT22;24866;50.248;8.252;2023-07-13T06:51:54;18.80;99.90
37408;DHT22;24866;50.248;8.252;2023-07-13T06:54:24;18.70;1.00
37408;DHT22;24866;50.248;8.252;2023-07-13T06:56:54;18.70;1.00
37408;DHT22;24866;50.248;8.252;2023-07-13T06:59:23;18.80;1.00
37408;DHT22;24866;50.248;8.252;2023-07-13T07:01:53;18.80;1.00
37408;DHT22;24866;50.248;8.252;2023-07-13T07:04:23;19.10;1.00
37408;DHT22;24866;50.248;8.252;2023-07-13T07:06:54;19.20;99.90
37408;DHT22;24866;50.248;8.252;2023-07-13T07:09:24;18.70;99.90
37408;DHT22;24866;50.248;8.252;2023-07-13T07:11:54;18.90;99.90
37408;DHT22;24866;50.248;8.252;2023-07-13T07:14:24;18.80;31.00
37408;DHT22;24866;50.248;8.252;2023-07-13T07:16:54;19.10;33.30
37408;DHT22;24866;50.248;8.252;2023-07-13T07:19:23;19.20;30.20
37408;DHT22;24866;50.248;8.252;2023-07-13T07:21:55;19.20;1.00
37408;DHT22;24866;50.248;8.252;2023-07-13T07:24:25;19.70;1.00
37408;DHT22;24866;50.248;8.252;2023-07-13T07:26:55;19.60;1.00
37408;DHT22;24866;50.248;8.252;2023-07-13T07:29:25;19.50;1.00
37408;DHT22;24866;50.248;8.252;2023-07-13T07:31:56;19.50;1.00
37408;DHT22;24866;50.248;8.252;2023-07-13T07:34:26;19.40;1.00
37408;DHT22;24866;50.248;8.252;2023-07-13T07:36:59;19.70;1.00
37408;DHT22;24866;50.248;8.252;2023-07-13T07:39:29;20.00;99.90
37408;DHT22;24866;50.248;8.252;2023-07-13T07:41:59;19.80;99.90
37408;DHT22;24866;50.248;8.252;2023-07-13T07:44:30;19.80;99.90
37408;DHT22;24866;50.248;8.252;2023-07-13T07:47:00;19.50;99.90
37408;DHT22;24866;50.248;8.252;2023-07-13T07:49:30;19.60;99.90
37408;DHT22;24866;50.248;8.252;2023-07-13T07:52:01;19.80;99.90
37408;DHT22;24866;50.248;8.252;2023-07-13T07:54:31;20.10;99.90
37408;DHT22;24866;50.248;8.252;2023-07-13T07:57:01;20.10;99.90
37408;DHT22;24866;50.248;8.252;2023-07-13T07:59:31;19.90;2.90
37408;DHT22;24866;50.248;8.252;2023-07-13T08:02:01;19.80;2.60
37408;DHT22;24866;50.248;8.252;2023-07-13T08:04:31;19.80;1.00
37408;DHT22;24866;50.248;8.252;2023-07-13T08:07:02;19.80;1.00
37408;DHT22;24866;50.248;8.252;2023-07-13T08:09:32;19.60;1.00
37408;DHT22;24866;50.248;8.252;2023-07-13T08:12:03;19.80;1.00
37408;DHT22;24866;50.248;8.252;2023-07-13T08:14:33;19.70;1.00
37408;DHT22;24866;50.248;8.252;2023-07-13T08:17:03;19.80;1.00
37408;DHT22;24866;50.248;8.252;2023-07-13T08:19:33;20.00;1.00
37408;DHT22;24866;50.248;8.252;2023-07-13T08:22:05;19.90;1.00
37408;DHT22;24866;50.248;8.252;2023-07-13T08:24:35;19.80;1.00
37408;DHT22;24866;50.248;8.252;2023-07-13T08:27:05;20.00;1.00
37408;DHT22;24866;50.248;8.252;2023-07-13T08:29:35;19.90;1.00
37408;DHT22;24866;50.248;8.252;2023-07-13T08:32:06;20.40;1.00
37408;DHT22;24866;50.248;8.252;2023-07-13T08:34:37;20.80;1.00
37408;DHT22;24866;50.248;8.252;2023-07-13T08:37:09;20.90;1.00
37408;DHT22;24866;50.248;8.252;2023-07-13T08:39:39;20.60;1.00
37408;DHT22;24866;50.248;8.252;2023-07-13T08:42:14;20.70;1.00
37408;DHT22;24866;50.248;8.252;2023-07-13T08:44:56;21.10;1.00
37408;DHT22;24866;50.248;8.252;2023-07-13T08:47:28;21.10;99.90
37408;DHT22;24866;50.248;8.252;2023-07-13T08:49:59;20.70;99.90
37408;DHT22;24866;50.248;8.252;2023-07-13T08:52:35;20.70;99.90
37408;DHT22;24866;50.248;8.252;2023-07-13T08:55:13;20.80;99.90
37408;DHT22;24866;50.248;8.252;2023-07-13T08:57:48;20.50;99.90
37408;DHT22;24866;50.248;8.252;2023-07-13T09:00:19;20.80;99.90
37408;DHT22;24866;50.248;8.252;2023-07-13T09:02:54;20.50;99.90
37408;DHT22;24866;50.248;8.252;2023-07-13T09:05:28;20.70;99.90
37408;DHT22;24866;50.248;8.252;2023-07-13T09:08:16;20.90;99.90
37408;DHT22;24866;50.248;8.252;2023-07-13T09:10:52;20.70;99.90
37408;DHT22;24866;50.248;8.252;2023-07-13T09:13:30;20.60;99.90
37408;DHT22;24866;50.248;8.252;2023-07-13T09:16:02;20.90;99.90
37408;DHT22;24866;50.248;8.252;2023-07-13T09:18:35;21.10;99.90
37408;DHT22;24866;50.248;8.252;2023-07-13T09:21:09;21.30;99.90
37408;DHT22;24866;50.248;8.252;2023-07-13T09:23:41;21.40;99.90
37408;DHT22;24866;50.248;8.252;2023-07-13T09:26:13;21.50;99.90
37408;DHT22;24866;50.248;8.252;2023-07-13T09:28:45;21.30;9.00
37408;DHT22;24866;50.248;8.252;2023-07-13T09:31:19;21.70;80.20
37408;DHT22;24866;50.248;8.252;2023-07-13T09:33:50;22.00;64.60
37408;DHT22;24866;50.248;8.252;2023-07-13T09:36:24;21.80;1.00
37408;DHT22;24866;50.248;8.252;2023-07-13T09:38:59;21.90;1.00
37408;DHT22;24866;50.248;8.252;2023-07-13T09:41:39;21.90;1.00
37408;DHT22;24866;50.248;8.252;2023-07-13T09:44:12;21.60;1.00
37408;DHT22;24866;50.248;8.252;2023-07-13T09:46:46;21.80;1.00
37408;DHT22;24866;50.248;8.252;2023-07-13T09:49:18;22.00;1.00
37408;DHT22;24866;50.248;8.252;2023-07-13T09:51:49;21.90;1.00
37408;DHT22;24866;50.248;8.252;2023-07-13T09:54:27;22.30;1.00
37408;DHT22;24866;50.248;8.252;2023-07-13T09:56:59;22.50;1.00
37408;DHT22;24866;50.248;8.252;2023-07-13T09:59:31;22.20;1.00
37408;DHT22;24866;50.248;8.252;2023-07-13T10:02:02;22.00;1.00
37408;DHT22;24866;50.248;8.252;2023-07-13T10:04:56;21.90;1.00
37408;DHT22;24866;50.248;8.252;2023-07-13T10:07:27;21.90;1.00
37408;DHT22;24866;50.248;8.252;2023-07-13T10:10:01;22.40;1.00
37408;DHT22;24866;50.248;8.252;2023-07-13T10:12:36;22.70;1.00
37408;DHT22;24866;50.248;8.252;2023-07-13T10:15:15;22.60;1.00
37408;DHT22;24866;50.248;8.252;2023-07-13T10:17:45;22.90;1.00
37408;DHT22;24866;50.248;8.252;2023-07-13T10:20:16;22.90;1.00
37408;DHT22;24866;50.248;8.252;2023-07-13T10:22:50;23.20;1.00
37408;DHT22;24866;50.248;8.252;2023-07-13T10:25:25;23.10;1.00
37408;DHT22;24866;50.248;8.252;2023-07-13T10:28:03;23.60;1.00
37408;DHT22;24866;50.248;8.252;2023-07-13T10:30:39;23.70;1.00
37408;DHT22;24866;50.248;8.252;2023-07-13T10:33:11;23.10;1.00
37408;DHT22;24866;50.248;8.252;2023-07-13T10:35:43;23.10;1.00
37408;DHT22;24866;50.248;8.252;2023-07-13T10:38:20;23.30;1.00
37408;DHT22;24866;50.248;8.252;2023-07-13T10:40:57;23.60;1.00
37408;DHT22;24866;50.248;8.252;2023-07-13T10:43:32;23.60;1.00
37408;DHT22;24866;50.248;8.252;2023-07-13T10:46:06;23.40;99.90
37408;DHT22;24866;50.248;8.252;2023-07-13T10:48:38;22.90;99.90
37408;DHT22;24866;50.248;8.252;2023-07-13T10:51:09;23.10;99.90
37408;DHT22;24866;50.248;8.252;2023-07-13T10:53:40;22.90;99.90
37408;DHT22;24866;50.248;8.252;2023-07-13T10:56:22;23.40;99.90
37408;DHT22;24866;50.248;8.252;2023-07-13T10:59:09;23.50;99.90
37408;DHT22;24866;50.248;8.252;2023-07-13T11:01:46;23.10;99.90
37408;DHT22;24866;50.248;8.252;2023-07-13T11:04:19;22.90;99.90
37408;DHT22;24866;50.248;8.252;2023-07-13T11:06:53;22.60;99.90
37408;DHT22;24866;50.248;8.252;2023-07-13T11:09:35;22.70;99.90
37408;DHT22;24866;50.248;8.252;2023-07-13T11:12:28;22.30;99.90
37408;DHT22;24866;50.248;8.252;2023-07-13T11:15:05;22.50;99.90
37408;DHT22;24866;50.248;8.252;2023-07-13T11:17:47;22.60;99.90
37408;DHT22;24866;50.248;8.252;2023-07-13T11:20:35;23.00;99.90
37408;DHT22;24866;50.248;8.252;2023-07-13T11:23:28;23.50;99.90
37408;DHT22;24866;50.248;8.252;2023-07-13T11:25:58;23.70;99.90
37408;DHT22;24866;50.248;8.252;2023-07-13T11:28:32;23.70;99.90
37408;DHT22;24866;50.248;8.252;2023-07-13T11:31:12;23.00;22.80
37408;DHT22;24866;50.248;8.252;2023-07-13T11:33:52;22.90;1.00
37408;DHT22;24866;50.248;8.252;2023-07-13T11:36:24;22.50;1.00
37408;DHT22;24866;50.248;8.252;2023-07-13T11:39:01;23.00;1.00
37408;DHT22;24866;50.248;8.252;2023-07-13T11:41:35;23.60;8.00
37408;DHT22;24866;50.248;8.252;2023-07-13T11:44:11;23.50;1.00
37408;DHT22;24866;50.248;8.252;2023-07-13T11:46:46;23.50;1.00
37408;DHT22;24866;50.248;8.252;2023-07-13T11:49:17;23.10;1.00
37408;DHT22;24866;50.248;8.252;2023-07-13T11:51:47;22.90;1.00
37408;DHT22;24866;50.248;8.252;2023-07-13T11:54:28;22.70;1.00
37408;DHT22;24866;50.248;8.252;2023-07-13T11:57:00;23.10;1.00
37408;DHT22;24866;50.248;8.252;2023-07-13T11:59:36;22.90;1.00
37408;DHT22;24866;50.248;8.252;2023-07-13T12:02:14;23.00;1.00
37408;DHT22;24866;50.248;8.252;2023-07-13T12:04:45;22.80;1.00
37408;DHT22;24866;50.248;8.252;2023-07-13T12:07:18;22.60;1.00
37408;DHT22;24866;50.248;8.252;2023-07-13T12:09:48;22.70;1.00
37408;DHT22;24866;50.248;8.252;2023-07-13T12:12:22;22.70;1.00
37408;DHT22;24866;50.248;8.252;2023-07-13T12:14:54;22.40;1.00
37408;DHT22;24866;50.248;8.252;2023-07-13T12:17:25;22.60;1.00
37408;DHT22;24866;50.248;8.252;2023-07-13T12:19:56;22.50;1.00
37408;DHT22;24866;50.248;8.252;2023-07-13T12:22:26;22.50;1.00
37408;DHT22;24866;50.248;8.252;2023-07-13T12:24:57;22.80;1.00
37408;DHT22;24866;50.248;8.252;2023-07-13T12:27:27;22.90;1.00
37408;DHT22;24866;50.248;8.252;2023-07-13T12:30:02;22.70;1.00
37408;DHT22;24866;50.248;8.252;2023-07-13T12:32:33;22.40;1.00
37408;DHT22;24866;50.248;8.252;2023-07-13T12:35:14;22.50;1.00
37408;DHT22;24866;50.248;8.252;2023-07-13T12:37:46;22.60;1.00
37408;DHT22;24866;50.248;8.252;2023-07-13T12:40:18;22.80;1.00
37408;DHT22;24866;50.248;8.252;2023-07-13T12:42:49;22.70;1.00
37408;DHT22;24866;50.248;8.252;2023-07-13T12:45:23;22.90;1.00
37408;DHT22;24866;50.248;8.252;2023-07-13T12:47:55;23.20;1.00
37408;DHT22;24866;50.248;8.252;2023-07-13T12:50:31;22.80;1.00
37408;DHT22;24866;50.248;8.252;2023-07-13T12:53:05;22.80;1.00
37408;DHT22;24866;50.248;8.252;2023-07-13T12:55:42;22.40;1.00
37408;DHT22;24866;50.248;8.252;2023-07-13T12:58:17;22.30;1.00
37408;DHT22;24866;50.248;8.252;2023-07-13T13:00:51;22.30;1.00
37408;DHT22;24866;50.248;8.252;2023-07-13T13:03:29;22.40;1.00
37408;DHT22;24866;50.248;8.252;2023-07-13T13:06:03;22.40;99.90
37408;DHT22;24866;50.248;8.252;2023-07-13T13:08:36;22.40;99.90
37408;DHT22;24866;50.248;8.252;2023-07-13T13:11:09;22.50;99.90
37408;DHT22;24866;50.248;8.252;2023-07-13T13:13:39;22.60;99.90
37408;DHT22;24866;50.248;8.252;2023-07-13T13:16:14;22.70;99.90
37408;DHT22;24866;50.248;8.252;2023-07-13T13:18:47;22.70;99.90
37408;DHT22;24866;50.248;8.252;2023-07-13T13:21:17;22.70;99.90
37408;DHT22;24866;50.248;8.252;2023-07-13T13:23:47;22.40;99.90
37408;DHT22;24866;50.248;8.252;2023-07-13T13:26:18;22.20;99.90
37408;DHT22;24866;50.248;8.252;2023-07-13T13:28:49;22.10;99.90
37408;DHT22;24866;50.248;8.252;2023-07-13T13:31:20;22.10;99.90
37408;DHT22;24866;50.248;8.252;2023-07-13T13:33:50;21.90;99.90
37408;DHT22;24866;50.248;8.252;2023-07-13T13:36:22;22.20;99.90
37408;DHT22;24866;50.248;8.252;2023-07-13T13:38:53;22.30;99.90
37408;DHT22;24866;50.248;8.252;2023-07-13T13:41:22;22.20;99.90
37408;DHT22;24866;50.248;8.252;2023-07-13T13:43:52;22.20;99.90
37408;DHT22;24866;50.248;8.252;2023-07-13T13:46:24;22.30;99.90
37408;DHT22;24866;50.248;8.252;2023-07-13T13:48:57;21.90;99.90
37408;DHT22;24866;50.248;8.252;2023-07-13T13:51:27;22.00;99.90
37408;DHT22;24866;50.248;8.252;2023-07-13T13:53:57;22.20;99.90
37408;DHT22;24866;50.248;8.252;2023-07-13T13:56:27;22.10;99.90
37408;DHT22;24866;50.248;8.252;2023-07-13T13:58:57;22.30;99.90
37408;DHT22;24866;50.248;8.252;2023-07-13T14:01:29;22.30;99.90
37408;DHT22;24866;50.248;8.252;2023-07-13T14:04:00;22.20;99.90
37408;DHT22;24866;50.248;8.252;2023-07-13T14:06:30;22.10;99.90
37408;DHT22;24866;50.248;8.252;2023-07-13T14:09:01;22.10;99.90
37408;DHT22;24866;50.248;8.252;2023-07-13T14:11:31;22.00;99.90
37408;DHT22;24866;50.248;8.252;2023-07-13T14:14:02;22.20;99.90
37408;DHT22;24866;50.248;8.252;2023-07-13T14:16:34;22.20;99.90
37408;DHT22;24866;50.248;8.252;2023-07-13T14:19:04;22.40;99.90
37408;DHT22;24866;50.248;8.252;2023-07-13T14:21:34;22.20;99.90
37408;DHT22;24866;50.248;8.252;2023-07-13T14:24:04;22.30;99.90
37408;DHT22;24866;50.248;8.252;2023-07-13T14:26:37;22.30;99.90
37408;DHT22;24866;50.248;8.252;2023-07-13T14:29:13;22.40;99.90
37408;DHT22;24866;50.248;8.252;2023-07-13T14:31:44;22.70;99.90
37408;DHT22;24866;50.248;8.252;2023-07-13T14:34:15;22.60;99.90
37408;DHT22;24866;50.248;8.252;2023-07-13T14:36:47;22.70;99.90
37408;DHT22;24866;50.248;8.252;2023-07-13T14:39:19;22.80;99.90
37408;DHT22;24866;50.248;8.252;2023-07-13T14:41:51;22.70;99.90
37408;DHT22;24866;50.248;8.252;2023-07-13T14:44:24;22.40;99.90
37408;DHT22;24866;50.248;8.252;2023-07-13T14:46:57;22.50;99.90
37408;DHT22;24866;50.248;8.252;2023-07-13T14:49:30;22.70;99.90
37408;DHT22;24866;50.248;8.252;2023-07-13T14:52:02;22.50;93.40
37408;DHT22;24866;50.248;8.252;2023-07-13T14:54:33;22.60;99.90
37408;DHT22;24866;50.248;8.252;2023-07-13T14:57:03;22.50;64.50
37408;DHT22;24866;50.248;8.252;2023-07-13T14:59:33;22.60;88.00
37408;DHT22;24866;50.248;8.252;2023-07-13T15:02:15;22.70;96.10
37408;DHT22;24866;50.248;8.252;2023-07-13T15:04:46;22.90;99.90
37408;DHT22;24866;50.248;8.252;2023-07-13T15:07:16;22.70;61.80
37408;DHT22;24866;50.248;8.252;2023-07-13T15:09:48;22.30;12.20
37408;DHT22;24866;50.248;8.252;2023-07-13T15:12:19;22.40;7.00
37408;DHT22;24866;50.248;8.252;2023-07-13T15:14:49;22.30;1.00
37408;DHT22;24866;50.248;8.252;2023-07-13T15:17:26;22.10;1.00
37408;DHT22;24866;50.248;8.252;2023-07-13T15:19:57;22.00;1.00
37408;DHT22;24866;50.248;8.252;2023-07-13T15:22:28;22.10;1.00
37408;DHT22;24866;50.248;8.252;2023-07-13T15:24:58;22.10;1.00
37408;DHT22;24866;50.248;8.252;2023-07-13T15:27:28;22.20;1.00
37408;DHT22;24866;50.248;8.252;2023-07-13T15:29:58;22.10;1.00
37408;DHT22;24866;50.248;8.252;2023-07-13T15:32:29;22.10;1.00
37408;DHT22;24866;50.248;8.252;2023-07-13T15:34:59;22.30;1.00
37408;DHT22;24866;50.248;8.252;2023-07-13T15:37:29;22.40;1.00
37408;DHT22;24866;50.248;8.252;2023-07-13T15:39:59;22.60;1.00
37408;DHT22;24866;50.248;8.252;2023-07-13T15:42:29;22.80;1.00
37408;DHT22;24866;50.248;8.252;2023-07-13T15:44:59;22.70;1.00
37408;DHT22;24866;50.248;8.252;2023-07-13T15:47:31;22.70;1.00
37408;DHT22;24866;50.248;8.252;2023-07-13T15:50:01;23.30;1.00
37408;DHT22;24866;50.248;8.252;2023-07-13T15:52:32;23.00;1.00
37408;DHT22;24866;50.248;8.252;2023-07-13T15:55:02;23.20;1.00
37408;DHT22;24866;50.248;8.252;2023-07-13T15:57:32;23.00;1.00
37408;DHT22;24866;50.248;8.252;2023-07-13T16:00:02;22.80;1.00
37408;DHT22;24866;50.248;8.252;2023-07-13T16:02:35;22.80;1.00
37408;DHT22;24866;50.248;8.252;2023-07-13T16:05:05;22.90;1.00
37408;DHT22;24866;50.248;8.252;2023-07-13T16:07:35;22.80;1.00
37408;DHT22;24866;50.248;8.252;2023-07-13T16:10:07;23.60;1.00